Weather at Charleston Executive Airport

Public forecast

Using degrees Fahrenheit for public forecast. Weather courtesy of forecast.io.

Current aviation weather report (METAR) for Charleston Executive Airport

Retrieved 2021/05/16 21:55 UTC (8 minutes ago):

KJZI 162155Z AUTO 16009KT 10SM CLR 24/09 A3021 RMK AO2

Aviation forecast (TAF) for Charleston Executive Airport

Forecast is more than 12 hours old.

Retrieved 2021/05/13 18:24 UTC (3 days ago):

TAF KJZI 131722Z 1318/1418 05011KT P6SM SKC FM140000 03005KT P6SM SKC FM141400 05013KT P6SM SKC